createdAt,value
2018-08-30T00:00:29.358Z,1012.72
2018-08-30T00:01:29.321Z,1012.79
2018-08-30T00:02:29.274Z,1012.76
2018-08-30T00:03:29.230Z,1012.88
2018-08-30T00:04:29.187Z,1012.88
2018-08-30T00:05:29.143Z,1012.92
2018-08-30T00:06:29.102Z,1012.89
2018-08-30T00:07:29.064Z,1012.92
2018-08-30T00:08:29.017Z,1012.96
2018-08-30T00:09:28.974Z,1012.91
2018-08-30T00:10:28.936Z,1012.99
2018-08-30T00:11:28.887Z,1012.96
2018-08-30T00:12:28.846Z,1012.97
2018-08-30T00:13:28.807Z,1012.97
2018-08-30T00:14:28.765Z,1012.98
2018-08-30T00:15:28.716Z,1013.00
2018-08-30T00:16:28.672Z,1012.98
2018-08-30T00:17:28.633Z,1013.03
2018-08-30T00:18:28.586Z,1013.01
2018-08-30T00:19:28.545Z,1013.07
2018-08-30T00:20:28.501Z,1013.06
2018-08-30T00:21:28.459Z,1013.07
2018-08-30T00:22:28.413Z,1013.13
2018-08-30T00:23:28.370Z,1013.16
2018-08-30T00:24:28.332Z,1013.13
2018-08-30T00:25:28.285Z,1013.15
2018-08-30T00:26:28.242Z,1013.18
2018-08-30T00:27:28.200Z,1013.20
2018-08-30T00:28:28.156Z,1013.17
2018-08-30T00:29:28.113Z,1013.16
2018-08-30T00:30:28.071Z,1013.21
2018-08-30T00:31:28.028Z,1013.23
2018-08-30T00:32:27.989Z,1013.19
2018-08-30T00:33:27.938Z,1013.26
2018-08-30T00:34:27.899Z,1013.27
2018-08-30T00:35:27.855Z,1013.30
2018-08-30T00:36:27.818Z,1013.32
2018-08-30T00:37:27.767Z,1013.39
2018-08-30T00:38:27.723Z,1013.36
2018-08-30T00:39:27.682Z,1013.39
2018-08-30T00:40:27.639Z,1013.44
2018-08-30T00:41:27.676Z,1013.49
2018-08-30T00:42:27.553Z,1013.45
2018-08-30T00:43:27.510Z,1013.53
2018-08-30T00:44:27.473Z,1013.47
2018-08-30T00:45:27.426Z,1013.46
2018-08-30T00:46:27.378Z,1013.48
2018-08-30T00:47:27.335Z,1013.48
2018-08-30T00:48:27.295Z,1013.45
2018-08-30T00:49:27.250Z,1013.48
2018-08-30T00:50:27.214Z,1013.47
2018-08-30T00:51:27.170Z,1013.46
2018-08-30T00:52:27.120Z,1013.50
2018-08-30T00:53:27.077Z,1013.51
2018-08-30T00:54:27.035Z,1013.55
2018-08-30T00:55:26.990Z,1013.50
2018-08-30T00:56:26.947Z,1013.52
2018-08-30T00:57:26.905Z,1013.52
2018-08-30T00:58:26.864Z,1013.56
2018-08-30T00:59:26.822Z,1013.56
2018-08-30T01:00:26.908Z,1013.60
2018-08-30T01:01:26.734Z,1013.58
2018-08-30T01:02:26.690Z,1013.62
2018-08-30T01:03:26.646Z,1013.59
2018-08-30T01:04:26.605Z,1013.59
2018-08-30T01:05:26.561Z,1013.59
2018-08-30T01:06:26.518Z,1013.58
2018-08-30T01:07:26.479Z,1013.61
2018-08-30T01:08:26.435Z,1013.62
2018-08-30T01:09:26.389Z,1013.68
2018-08-30T01:10:26.350Z,1013.66
2018-08-30T01:11:26.300Z,1013.69
2018-08-30T01:12:26.262Z,1013.67
2018-08-30T01:13:26.222Z,1013.72
2018-08-30T01:14:26.175Z,1013.69
2018-08-30T01:15:26.129Z,1013.75
2018-08-30T01:16:26.090Z,1013.76
2018-08-30T01:17:26.043Z,1013.76
2018-08-30T01:18:26.002Z,1013.76
2018-08-30T01:19:25.956Z,1013.76
2018-08-30T01:20:25.918Z,1013.79
2018-08-30T01:21:25.871Z,1013.77
2018-08-30T01:22:25.829Z,1013.80
2018-08-30T01:23:25.784Z,1013.81
2018-08-30T01:24:25.748Z,1013.79
2018-08-30T01:25:25.698Z,1013.81
2018-08-30T01:26:25.656Z,1013.82
2018-08-30T01:27:25.613Z,1013.81
2018-08-30T01:28:25.573Z,1013.84
2018-08-30T01:29:25.531Z,1013.81
2018-08-30T01:30:25.484Z,1013.82
2018-08-30T01:31:25.458Z,1013.85
2018-08-30T01:32:25.401Z,1013.87
2018-08-30T01:33:25.353Z,1013.89
2018-08-30T01:34:25.311Z,1013.91
2018-08-30T01:35:25.273Z,1013.94
2018-08-30T01:36:25.226Z,1013.96
2018-08-30T01:37:25.186Z,1013.96
2018-08-30T01:38:25.143Z,1013.95
2018-08-30T01:39:25.098Z,1013.97
2018-08-30T01:40:25.063Z,1013.97
2018-08-30T01:41:25.013Z,1013.98
2018-08-30T01:42:24.968Z,1013.96
2018-08-30T01:43:24.924Z,1013.98
2018-08-30T01:44:24.885Z,1014.01
2018-08-30T01:45:24.844Z,1014.00
2018-08-30T01:46:24.797Z,1014.03
2018-08-30T01:47:24.753Z,1014.06
2018-08-30T01:48:24.710Z,1014.00
2018-08-30T01:49:24.668Z,1014.01
2018-08-30T01:50:24.623Z,1014.02
2018-08-30T01:51:24.583Z,1014.06
2018-08-30T01:52:24.535Z,1014.04
2018-08-30T01:53:24.494Z,1013.99
2018-08-30T01:54:24.451Z,1014.05
2018-08-30T01:55:24.411Z,1013.99
2018-08-30T01:56:24.365Z,1014.03
2018-08-30T01:57:24.323Z,1014.00
2018-08-30T01:58:24.279Z,1014.02
2018-08-30T01:59:24.237Z,1013.96
2018-08-30T02:00:24.196Z,1013.98
2018-08-30T02:01:24.150Z,1014.00
2018-08-30T02:02:24.107Z,1013.95
2018-08-30T02:03:24.062Z,1014.01
2018-08-30T02:04:24.023Z,1013.98
2018-08-30T02:05:23.976Z,1013.95
2018-08-30T02:06:23.935Z,1013.98
2018-08-30T02:07:23.891Z,1013.96
2018-08-30T02:08:23.854Z,1013.97
2018-08-30T02:09:23.808Z,1014.03
2018-08-30T02:10:23.763Z,1014.03
2018-08-30T02:11:23.720Z,1014.02
2018-08-30T02:12:23.682Z,1014.03
2018-08-30T02:13:23.646Z,1014.05
2018-08-30T02:14:23.594Z,1014.00
2018-08-30T02:15:23.548Z,1013.95
2018-08-30T02:16:23.504Z,1014.00
2018-08-30T02:17:23.461Z,1013.95
2018-08-30T02:18:23.424Z,1014.01
2018-08-30T02:19:23.375Z,1014.00
2018-08-30T02:20:23.355Z,1014.02
2018-08-30T02:21:23.298Z,1014.01
2018-08-30T02:22:23.247Z,1014.00
2018-08-30T02:23:23.207Z,1014.04
2018-08-30T02:24:23.164Z,1014.01
2018-08-30T02:25:23.119Z,1014.03
2018-08-30T02:26:23.075Z,1014.00
2018-08-30T02:27:23.032Z,1014.01
2018-08-30T02:28:23.015Z,1013.96
2018-08-30T02:29:22.948Z,1013.98
2018-08-30T02:30:22.903Z,1014.00
2018-08-30T02:31:22.861Z,1014.00
2018-08-30T02:32:22.819Z,1014.00
2018-08-30T02:33:22.774Z,1014.00
2018-08-30T02:34:22.736Z,1014.00
2018-08-30T02:35:22.687Z,1013.96
2018-08-30T02:36:22.647Z,1014.00
2018-08-30T02:37:22.602Z,1013.97
2018-08-30T02:38:22.563Z,1013.97
2018-08-30T02:39:22.516Z,1013.99
2018-08-30T02:40:22.475Z,1014.01
2018-08-30T02:41:22.429Z,1014.05
2018-08-30T02:42:22.388Z,1014.08
2018-08-30T02:43:22.343Z,1014.09
2018-08-30T02:44:22.303Z,1014.09
2018-08-30T02:45:22.261Z,1014.13
2018-08-30T02:46:22.216Z,1014.18
2018-08-30T02:47:22.169Z,1014.19
2018-08-30T02:48:22.127Z,1014.16
2018-08-30T02:49:22.091Z,1014.14
2018-08-30T02:50:22.042Z,1014.14
2018-08-30T02:51:22.000Z,1014.11
2018-08-30T02:52:21.958Z,1014.18
2018-08-30T02:53:21.913Z,1014.16
2018-08-30T02:54:21.874Z,1014.17
2018-08-30T02:55:21.827Z,1014.17
2018-08-30T02:56:21.784Z,1014.16
2018-08-30T02:57:21.739Z,1014.20
2018-08-30T02:58:21.700Z,1014.18
2018-08-30T02:59:21.657Z,1014.15
2018-08-30T03:00:21.612Z,1014.18
2018-08-30T03:01:21.573Z,1014.24
2018-08-30T03:02:21.528Z,1014.22
2018-08-30T03:03:21.481Z,1014.23
2018-08-30T03:04:21.443Z,1014.22
2018-08-30T03:05:21.398Z,1014.26
2018-08-30T03:06:21.353Z,1014.27
2018-08-30T03:07:21.312Z,1014.30
2018-08-30T03:08:21.267Z,1014.27
2018-08-30T03:09:21.227Z,1014.28
2018-08-30T03:10:21.182Z,1014.30
2018-08-30T03:11:21.140Z,1014.30
2018-08-30T03:12:21.098Z,1014.37
2018-08-30T03:13:21.053Z,1014.34
2018-08-30T03:14:21.012Z,1014.33
2018-08-30T03:15:20.968Z,1014.30
2018-08-30T03:16:20.924Z,1014.34
2018-08-30T03:17:20.883Z,1014.35
2018-08-30T03:18:20.839Z,1014.38
2018-08-30T03:19:20.794Z,1014.40
2018-08-30T03:20:20.751Z,1014.45
2018-08-30T03:21:20.709Z,1014.46
2018-08-30T03:22:20.668Z,1014.45
2018-08-30T03:23:20.685Z,1014.45
2018-08-30T03:24:20.692Z,1014.48
2018-08-30T03:25:20.628Z,1014.50
2018-08-30T03:26:20.610Z,1014.46
2018-08-30T03:27:20.448Z,1014.47
2018-08-30T03:28:20.406Z,1014.49
2018-08-30T03:29:20.367Z,1014.47
2018-08-30T03:30:20.345Z,1014.49
2018-08-30T03:31:20.290Z,1014.50
2018-08-30T03:32:20.238Z,1014.49
2018-08-30T03:33:20.192Z,1014.53
2018-08-30T03:34:20.150Z,1014.57
2018-08-30T03:35:20.105Z,1014.54
2018-08-30T03:36:20.069Z,1014.54
2018-08-30T03:37:20.022Z,1014.54
2018-08-30T03:38:19.983Z,1014.56
2018-08-30T03:39:19.940Z,1014.59
2018-08-30T03:40:19.892Z,1014.57
2018-08-30T03:41:19.849Z,1014.56
2018-08-30T03:42:19.805Z,1014.52
2018-08-30T03:43:19.763Z,1014.57
2018-08-30T03:44:19.721Z,1014.57
2018-08-30T03:45:19.678Z,1014.56
2018-08-30T03:46:19.635Z,1014.58
2018-08-30T03:47:19.588Z,1014.55
2018-08-30T03:48:19.548Z,1014.58
2018-08-30T03:49:19.505Z,1014.54
2018-08-30T03:50:19.462Z,1014.57
2018-08-30T03:51:19.417Z,1014.63
2018-08-30T03:52:19.378Z,1014.58
2018-08-30T03:53:19.332Z,1014.58
2018-08-30T03:54:19.291Z,1014.60
2018-08-30T03:55:19.341Z,1014.60
2018-08-30T03:56:19.201Z,1014.59
2018-08-30T03:57:19.158Z,1014.61
2018-08-30T03:58:19.117Z,1014.59
2018-08-30T03:59:19.074Z,1014.61
2018-08-30T04:00:19.030Z,1014.62
2018-08-30T04:01:18.988Z,1014.63
2018-08-30T04:02:18.952Z,1014.65
2018-08-30T04:03:18.905Z,1014.66
2018-08-30T04:04:18.958Z,1014.65
2018-08-30T04:05:18.813Z,1014.70
2018-08-30T04:06:18.772Z,1014.71
2018-08-30T04:07:18.728Z,1014.76
2018-08-30T04:08:18.686Z,1014.77
2018-08-30T04:09:18.651Z,1014.73
2018-08-30T04:10:18.599Z,1014.78
2018-08-30T04:11:18.556Z,1014.79
2018-08-30T04:12:18.513Z,1014.84
2018-08-30T04:13:18.469Z,1014.84
2018-08-30T04:14:18.432Z,1014.81
2018-08-30T04:15:18.385Z,1014.83
2018-08-30T04:16:18.349Z,1014.82
2018-08-30T04:17:18.298Z,1014.81
2018-08-30T04:18:18.310Z,1014.83
2018-08-30T04:19:18.212Z,1014.82
2018-08-30T04:20:18.175Z,1014.82
2018-08-30T04:21:18.126Z,1014.85
2018-08-30T04:22:18.087Z,1014.89
2018-08-30T04:23:18.040Z,1014.87
2018-08-30T04:24:17.996Z,1014.85
2018-08-30T04:25:17.953Z,1014.86
2018-08-30T04:26:17.909Z,1014.88
2018-08-30T04:27:17.869Z,1014.89
2018-08-30T04:28:17.825Z,1014.91
2018-08-30T04:29:17.781Z,1014.96
2018-08-30T04:30:17.739Z,1014.93
2018-08-30T04:31:17.744Z,1014.93
2018-08-30T04:32:17.658Z,1014.92
2018-08-30T04:33:17.614Z,1014.91
2018-08-30T04:34:17.569Z,1014.93
2018-08-30T04:35:17.525Z,1014.94
2018-08-30T04:36:17.482Z,1014.91
2018-08-30T04:37:17.437Z,1014.95
2018-08-30T04:38:17.397Z,1014.97
2018-08-30T04:39:17.349Z,1014.96
2018-08-30T04:40:17.306Z,1015.00
2018-08-30T04:41:17.319Z,1015.01
2018-08-30T04:42:17.288Z,1015.05
2018-08-30T04:43:17.185Z,1015.00
2018-08-30T04:44:17.135Z,1015.02
2018-08-30T04:45:17.096Z,1014.98
2018-08-30T04:46:17.069Z,1015.02
2018-08-30T04:47:17.009Z,1015.05
2018-08-30T04:48:16.964Z,1015.02
2018-08-30T04:49:16.920Z,1015.07
2018-08-30T04:50:16.995Z,1015.08
2018-08-30T04:51:16.833Z,1015.03
2018-08-30T04:52:16.790Z,1015.09
2018-08-30T04:53:16.749Z,1015.07
2018-08-30T04:54:16.705Z,1015.07
2018-08-30T04:55:16.668Z,1015.12
2018-08-30T04:56:16.617Z,1015.07
2018-08-30T04:57:16.575Z,1015.07
2018-08-30T04:58:16.533Z,1015.09
2018-08-30T04:59:16.488Z,1015.10
2018-08-30T05:00:16.448Z,1015.11
2018-08-30T05:01:16.404Z,1015.17
2018-08-30T05:02:16.362Z,1015.20
2018-08-30T05:03:16.320Z,1015.20
2018-08-30T05:04:16.283Z,1015.18
2018-08-30T05:05:16.239Z,1015.20
2018-08-30T05:06:16.192Z,1015.21
2018-08-30T05:07:16.148Z,1015.15
2018-08-30T05:08:16.104Z,1015.22
2018-08-30T05:09:16.062Z,1015.23
2018-08-30T05:10:16.024Z,1015.25
2018-08-30T05:11:15.972Z,1015.28
2018-08-30T05:12:15.930Z,1015.27
2018-08-30T05:13:15.888Z,1015.27
2018-08-30T05:14:15.846Z,1015.27
2018-08-30T05:15:15.802Z,1015.26
2018-08-30T05:16:15.760Z,1015.31
2018-08-30T05:17:15.718Z,1015.33
2018-08-30T05:18:15.677Z,1015.34
2018-08-30T05:19:15.629Z,1015.32
2018-08-30T05:20:15.587Z,1015.35
2018-08-30T05:21:15.544Z,1015.32
2018-08-30T05:22:15.514Z,1015.39
2018-08-30T05:23:15.457Z,1015.37
2018-08-30T05:24:15.415Z,1015.35
2018-08-30T05:25:15.370Z,1015.35
2018-08-30T05:26:15.328Z,1015.40
2018-08-30T05:27:15.286Z,1015.38
2018-08-30T05:28:15.258Z,1015.42
2018-08-30T05:29:15.203Z,1015.35
2018-08-30T05:30:15.159Z,1015.38
2018-08-30T05:31:15.117Z,1015.40
2018-08-30T05:32:15.073Z,1015.38
2018-08-30T05:33:15.030Z,1015.41
2018-08-30T05:34:14.984Z,1015.42
2018-08-30T05:35:14.943Z,1015.42
2018-08-30T05:36:14.899Z,1015.43
2018-08-30T05:37:14.856Z,1015.45
2018-08-30T05:38:14.816Z,1015.45
2018-08-30T05:39:14.771Z,1015.50
2018-08-30T05:40:14.735Z,1015.53
2018-08-30T05:41:14.688Z,1015.51
2018-08-30T05:42:14.641Z,1015.54
2018-08-30T05:43:14.601Z,1015.52
2018-08-30T05:44:14.557Z,1015.55
2018-08-30T05:45:14.516Z,1015.57
2018-08-30T05:46:14.477Z,1015.56
2018-08-30T05:47:14.425Z,1015.59
2018-08-30T05:48:14.387Z,1015.56
2018-08-30T05:49:14.341Z,1015.55
2018-08-30T05:50:14.298Z,1015.56
2018-08-30T05:51:14.254Z,1015.60
2018-08-30T05:52:14.214Z,1015.58
2018-08-30T05:53:14.170Z,1015.58
2018-08-30T05:54:14.124Z,1015.61
2018-08-30T05:55:14.085Z,1015.62
2018-08-30T05:56:14.041Z,1015.63
2018-08-30T05:57:13.997Z,1015.62
2018-08-30T05:58:13.957Z,1015.62
2018-08-30T05:59:13.910Z,1015.65
2018-08-30T06:00:13.866Z,1015.72
2018-08-30T06:01:13.824Z,1015.70
2018-08-30T06:02:13.784Z,1015.76
2018-08-30T06:03:13.738Z,1015.73
2018-08-30T06:04:13.696Z,1015.79
2018-08-30T06:05:13.654Z,1015.74
2018-08-30T06:06:13.614Z,1015.76
2018-08-30T06:07:13.590Z,1015.76
2018-08-30T06:08:13.555Z,1015.73
2018-08-30T06:09:13.481Z,1015.75
2018-08-30T06:10:13.439Z,1015.79
2018-08-30T06:11:13.395Z,1015.78
2018-08-30T06:12:13.350Z,1015.78
2018-08-30T06:13:13.488Z,1015.76
2018-08-30T06:14:13.268Z,1015.80
2018-08-30T06:15:13.224Z,1015.79
2018-08-30T06:16:13.183Z,1015.81
2018-08-30T06:17:13.148Z,1015.81
2018-08-30T06:18:13.096Z,1015.85
2018-08-30T06:19:13.051Z,1015.82
2018-08-30T06:20:13.015Z,1015.84
2018-08-30T06:21:12.966Z,1015.86
2018-08-30T06:22:12.922Z,1015.89
2018-08-30T06:23:12.882Z,1015.91
2018-08-30T06:24:12.838Z,1015.92
2018-08-30T06:25:12.794Z,1015.98
2018-08-30T06:26:12.753Z,1015.97
2018-08-30T06:27:12.709Z,1015.98
2018-08-30T06:28:12.665Z,1015.97
2018-08-30T06:29:12.670Z,1016.01
2018-08-30T06:30:12.581Z,1016.02
2018-08-30T06:31:12.538Z,1016.03
2018-08-30T06:32:12.493Z,1016.05
2018-08-30T06:33:12.449Z,1016.04
2018-08-30T06:34:12.410Z,1016.09
2018-08-30T06:35:12.363Z,1016.07
2018-08-30T06:36:12.322Z,1016.10
2018-08-30T06:37:12.284Z,1016.10
2018-08-30T06:38:12.240Z,1016.11
2018-08-30T06:39:12.196Z,1016.11
2018-08-30T06:40:12.150Z,1016.16
2018-08-30T06:41:12.110Z,1016.17
2018-08-30T06:42:12.065Z,1016.10
2018-08-30T06:43:12.021Z,1016.13
2018-08-30T06:44:11.978Z,1016.14
2018-08-30T06:45:11.936Z,1016.11
2018-08-30T06:46:11.894Z,1016.17
2018-08-30T06:47:11.850Z,1016.17
2018-08-30T06:48:11.807Z,1016.15
2018-08-30T06:49:11.765Z,1016.13
2018-08-30T06:50:11.722Z,1016.19
2018-08-30T06:51:11.680Z,1016.18
2018-08-30T06:52:11.635Z,1016.24
2018-08-30T06:53:11.599Z,1016.20
2018-08-30T06:54:11.551Z,1016.28
2018-08-30T06:55:11.508Z,1016.27
2018-08-30T06:56:11.478Z,1016.28
2018-08-30T06:57:11.427Z,1016.31
2018-08-30T06:58:11.380Z,1016.33
2018-08-30T06:59:11.337Z,1016.32
2018-08-30T07:00:11.292Z,1016.34
2018-08-30T07:01:11.250Z,1016.32
2018-08-30T07:02:11.212Z,1016.33
2018-08-30T07:03:11.166Z,1016.36
2018-08-30T07:04:11.165Z,1016.35
2018-08-30T07:05:11.083Z,1016.37
2018-08-30T07:06:11.039Z,1016.37
2018-08-30T07:07:10.994Z,1016.41
2018-08-30T07:08:10.983Z,1016.39
2018-08-30T07:09:10.910Z,1016.44
2018-08-30T07:10:10.869Z,1016.47
2018-08-30T07:11:10.850Z,1016.43
2018-08-30T07:12:10.781Z,1016.49
2018-08-30T07:13:10.740Z,1016.52
2018-08-30T07:14:10.696Z,1016.53
2018-08-30T07:15:10.653Z,1016.51
2018-08-30T07:16:10.610Z,1016.46
2018-08-30T07:17:10.568Z,1016.44
2018-08-30T07:18:10.525Z,1016.40
2018-08-30T07:19:10.482Z,1016.46
2018-08-30T07:20:10.438Z,1016.45
2018-08-30T07:21:10.448Z,1016.49
2018-08-30T07:22:10.360Z,1016.45
2018-08-30T07:23:10.312Z,1016.46
2018-08-30T07:24:10.324Z,1016.51
2018-08-30T07:25:10.225Z,1016.50
2018-08-30T07:26:10.185Z,1016.53
2018-08-30T07:27:10.141Z,1016.55
2018-08-30T07:28:10.102Z,1016.54
2018-08-30T07:29:10.061Z,1016.54
2018-08-30T07:30:10.019Z,1016.55
2018-08-30T07:31:09.971Z,1016.56
2018-08-30T07:32:09.931Z,1016.53
2018-08-30T07:33:09.888Z,1016.53
2018-08-30T07:34:09.891Z,1016.54
2018-08-30T07:35:09.896Z,1016.54
2018-08-30T07:36:09.762Z,1016.58
2018-08-30T07:37:09.717Z,1016.55
2018-08-30T07:38:09.686Z,1016.54
2018-08-30T07:39:09.641Z,1016.54
2018-08-30T07:40:09.591Z,1016.58
2018-08-30T07:41:09.553Z,1016.62
2018-08-30T07:42:09.516Z,1016.61
2018-08-30T07:43:09.461Z,1016.62
2018-08-30T07:44:09.501Z,1016.63
2018-08-30T07:45:09.377Z,1016.63
2018-08-30T07:46:09.339Z,1016.66
2018-08-30T07:47:09.354Z,1016.66
2018-08-30T07:48:09.253Z,1016.64
2018-08-30T07:49:09.207Z,1016.65
2018-08-30T07:50:09.168Z,1016.68
2018-08-30T07:51:09.127Z,1016.67
2018-08-30T07:52:09.082Z,1016.63
2018-08-30T07:53:09.040Z,1016.68
2018-08-30T07:54:08.996Z,1016.70
2018-08-30T07:55:08.954Z,1016.71
2018-08-30T07:56:08.917Z,1016.69
2018-08-30T07:57:08.873Z,1016.66
2018-08-30T07:58:08.832Z,1016.71
2018-08-30T07:59:08.793Z,1016.67
2018-08-30T08:00:08.808Z,1016.64
2018-08-30T08:01:08.700Z,1016.68
2018-08-30T08:02:08.665Z,1016.71
2018-08-30T08:03:08.617Z,1016.76
2018-08-30T08:04:08.577Z,1016.77
2018-08-30T08:05:08.538Z,1016.73
2018-08-30T08:06:08.550Z,1016.76
2018-08-30T08:07:08.463Z,1016.79
2018-08-30T08:08:08.410Z,1016.80
2018-08-30T08:09:08.368Z,1016.80
2018-08-30T08:10:08.326Z,1016.87
2018-08-30T08:11:08.285Z,1016.84
2018-08-30T08:12:08.239Z,1016.85
2018-08-30T08:13:08.195Z,1016.83
2018-08-30T08:14:08.162Z,1016.93
2018-08-30T08:15:08.111Z,1016.96
2018-08-30T08:16:08.075Z,1016.90
2018-08-30T08:17:08.030Z,1016.91
2018-08-30T08:18:07.988Z,1016.94
2018-08-30T08:19:07.967Z,1016.93
2018-08-30T08:20:07.906Z,1016.96
2018-08-30T08:21:07.861Z,1016.98
2018-08-30T08:22:07.824Z,1016.95
2018-08-30T08:23:07.778Z,1016.94
2018-08-30T08:24:07.738Z,1016.94
2018-08-30T08:25:07.693Z,1016.94
2018-08-30T08:26:07.658Z,1016.96
2018-08-30T08:27:07.612Z,1016.99
2018-08-30T08:28:07.572Z,1016.99
2018-08-30T08:29:07.532Z,1016.98
2018-08-30T08:30:07.489Z,1017.01
2018-08-30T08:31:07.557Z,1016.98
2018-08-30T08:32:07.406Z,1016.98
2018-08-30T08:33:07.361Z,1017.01
2018-08-30T08:34:07.322Z,1017.00
2018-08-30T08:35:07.279Z,1016.98
2018-08-30T08:36:07.243Z,1017.05
2018-08-30T08:37:07.194Z,1017.02
2018-08-30T08:38:07.153Z,1017.07
2018-08-30T08:39:07.111Z,1017.04
2018-08-30T08:40:07.074Z,1017.08
2018-08-30T08:41:07.028Z,1017.05
2018-08-30T08:42:07.036Z,1017.09
2018-08-30T08:43:06.948Z,1017.08
2018-08-30T08:44:06.905Z,1017.12
2018-08-30T08:45:06.866Z,1017.14
2018-08-30T08:46:06.823Z,1017.14
2018-08-30T08:47:06.781Z,1017.17
2018-08-30T08:48:06.742Z,1017.17
2018-08-30T08:49:06.700Z,1017.18
2018-08-30T08:50:06.660Z,1017.21
2018-08-30T08:51:06.625Z,1017.10
2018-08-30T08:52:06.572Z,1017.17
2018-08-30T08:53:06.533Z,1017.14
2018-08-30T08:54:06.489Z,1017.20
2018-08-30T08:55:06.448Z,1017.16
2018-08-30T08:56:06.406Z,1017.20
2018-08-30T08:57:06.365Z,1017.20
2018-08-30T08:58:06.327Z,1017.25
2018-08-30T08:59:06.338Z,1017.25
2018-08-30T09:00:06.244Z,1017.25
2018-08-30T09:01:06.201Z,1017.27
2018-08-30T09:02:06.160Z,1017.29
2018-08-30T09:03:06.120Z,1017.27
2018-08-30T09:04:06.079Z,1017.27
2018-08-30T09:05:06.038Z,1017.26
2018-08-30T09:06:05.997Z,1017.32
2018-08-30T09:07:06.017Z,1017.35
2018-08-30T09:08:05.912Z,1017.33
2018-08-30T09:09:05.874Z,1017.32
2018-08-30T09:10:05.832Z,1017.32
2018-08-30T09:11:05.796Z,1017.29
2018-08-30T09:12:05.750Z,1017.31
2018-08-30T09:13:05.712Z,1017.28
2018-08-30T09:14:05.668Z,1017.33
2018-08-30T09:15:05.634Z,1017.28
2018-08-30T09:16:05.589Z,1017.23
2018-08-30T09:17:05.548Z,1017.30
2018-08-30T09:18:05.508Z,1017.31
2018-08-30T09:19:05.465Z,1017.33
2018-08-30T09:20:05.429Z,1017.34
2018-08-30T09:21:05.385Z,1017.33
2018-08-30T09:22:05.344Z,1017.31
2018-08-30T09:23:05.368Z,1017.34
2018-08-30T09:24:05.261Z,1017.32
2018-08-30T09:25:05.223Z,1017.32
2018-08-30T09:26:05.183Z,1017.34
2018-08-30T09:27:05.170Z,1017.34
2018-08-30T09:28:05.102Z,1017.33
2018-08-30T09:29:05.066Z,1017.29
2018-08-30T09:30:05.025Z,1017.31
2018-08-30T09:31:05.079Z,1017.25
2018-08-30T09:32:04.939Z,1017.27
2018-08-30T09:33:04.904Z,1017.28
2018-08-30T09:34:04.860Z,1017.27
2018-08-30T09:35:04.823Z,1017.35
2018-08-30T09:36:04.779Z,1017.35
2018-08-30T09:37:04.740Z,1017.35
2018-08-30T09:38:04.700Z,1017.32
2018-08-30T09:39:04.658Z,1017.37
2018-08-30T09:40:04.631Z,1017.38
2018-08-30T09:41:04.580Z,1017.38
2018-08-30T09:42:04.537Z,1017.32
2018-08-30T09:43:04.501Z,1017.38
2018-08-30T09:44:04.505Z,1017.33
2018-08-30T09:45:04.421Z,1017.36
2018-08-30T09:46:04.377Z,1017.39
2018-08-30T09:47:04.341Z,1017.35
2018-08-30T09:48:04.300Z,1017.35
2018-08-30T09:49:04.255Z,1017.35
2018-08-30T09:50:04.214Z,1017.37
2018-08-30T09:51:04.176Z,1017.38
2018-08-30T09:52:04.134Z,1017.31
2018-08-30T09:53:04.094Z,1017.36
2018-08-30T09:54:04.053Z,1017.35
2018-08-30T09:55:04.013Z,1017.38
2018-08-30T09:56:03.977Z,1017.35
2018-08-30T09:57:04.121Z,1017.35
2018-08-30T09:58:03.892Z,1017.36
2018-08-30T09:59:03.852Z,1017.36
2018-08-30T10:00:03.812Z,1017.39
2018-08-30T10:01:03.779Z,1017.42
2018-08-30T10:02:03.737Z,1017.35
2018-08-30T10:03:03.688Z,1017.40
2018-08-30T10:04:03.648Z,1017.37
2018-08-30T10:05:03.632Z,1017.33
2018-08-30T10:06:03.575Z,1017.40
2018-08-30T10:07:03.531Z,1017.41
2018-08-30T10:08:03.485Z,1017.40
2018-08-30T10:09:03.444Z,1017.40
2018-08-30T10:10:03.404Z,1017.38
2018-08-30T10:11:03.363Z,1017.43
2018-08-30T10:12:03.323Z,1017.40
2018-08-30T10:13:03.284Z,1017.37
2018-08-30T10:14:03.244Z,1017.40
2018-08-30T10:15:03.202Z,1017.41
2018-08-30T10:16:03.343Z,1017.38
2018-08-30T10:17:03.119Z,1017.35
2018-08-30T10:18:03.084Z,1017.40
2018-08-30T10:19:03.040Z,1017.53
2018-08-30T10:20:03.003Z,1017.48
2018-08-30T10:21:02.960Z,1017.55
2018-08-30T10:22:02.920Z,1017.52
2018-08-30T10:23:02.878Z,1017.51
2018-08-30T10:24:02.841Z,1017.52
2018-08-30T10:25:02.800Z,1017.52
2018-08-30T10:26:02.757Z,1017.51
2018-08-30T10:27:02.719Z,1017.54
2018-08-30T10:28:02.674Z,1017.48
2018-08-30T10:29:02.637Z,1017.51
2018-08-30T10:30:02.603Z,1017.52
2018-08-30T10:31:02.555Z,1017.48
2018-08-30T10:32:02.513Z,1017.46
2018-08-30T10:33:02.473Z,1017.50
2018-08-30T10:34:02.438Z,1017.46
2018-08-30T10:35:02.396Z,1017.44
2018-08-30T10:36:02.351Z,1017.45
2018-08-30T10:37:02.384Z,1017.47
2018-08-30T10:38:02.275Z,1017.47
2018-08-30T10:39:02.230Z,1017.52
2018-08-30T10:40:02.190Z,1017.53
2018-08-30T10:41:02.156Z,1017.50
2018-08-30T10:42:02.121Z,1017.51
2018-08-30T10:43:02.181Z,1017.58
2018-08-30T10:44:02.032Z,1017.51
2018-08-30T10:45:01.988Z,1017.51
2018-08-30T10:46:01.949Z,1017.51
2018-08-30T10:47:01.908Z,1017.46
2018-08-30T10:48:01.873Z,1017.48
2018-08-30T10:49:01.826Z,1017.46
2018-08-30T10:50:01.855Z,1017.48
2018-08-30T10:51:01.744Z,1017.49
2018-08-30T10:52:01.702Z,1017.51
2018-08-30T10:53:01.662Z,1017.52
2018-08-30T10:54:01.623Z,1017.51
2018-08-30T10:55:01.584Z,1017.48
2018-08-30T10:56:01.540Z,1017.51
2018-08-30T10:57:01.504Z,1017.51
2018-08-30T10:58:01.490Z,1017.52
2018-08-30T10:59:01.420Z,1017.54
2018-08-30T11:00:01.379Z,1017.58
2018-08-30T11:01:01.341Z,1017.56
2018-08-30T11:02:01.299Z,1017.54
2018-08-30T11:03:01.256Z,1017.55
2018-08-30T11:04:01.219Z,1017.53
2018-08-30T11:05:01.185Z,1017.54
2018-08-30T11:06:01.141Z,1017.53
2018-08-30T11:07:01.095Z,1017.44
2018-08-30T11:08:01.056Z,1017.46
2018-08-30T11:09:01.017Z,1017.52
2018-08-30T11:10:01.021Z,1017.56
2018-08-30T11:11:00.933Z,1017.52
2018-08-30T11:12:00.901Z,1017.53
2018-08-30T11:13:00.966Z,1017.50
2018-08-30T11:14:00.816Z,1017.50
2018-08-30T11:15:00.775Z,1017.42
2018-08-30T11:16:00.739Z,1017.51
2018-08-30T11:17:00.697Z,1017.55
2018-08-30T11:18:00.654Z,1017.52
2018-08-30T11:19:00.613Z,1017.48
2018-08-30T11:20:00.574Z,1017.49
2018-08-30T11:21:00.535Z,1017.45
2018-08-30T11:22:00.495Z,1017.51
2018-08-30T11:23:00.456Z,1017.47
2018-08-30T11:24:00.418Z,1017.46
2018-08-30T11:25:00.375Z,1017.57
2018-08-30T11:26:00.335Z,1017.47
2018-08-30T11:27:00.299Z,1017.48
2018-08-30T11:28:00.254Z,1017.45
2018-08-30T11:29:00.215Z,1017.51
2018-08-30T11:30:00.178Z,1017.47
2018-08-30T11:31:00.135Z,1017.50
2018-08-30T11:32:00.099Z,1017.48
2018-08-30T11:33:00.056Z,1017.52
2018-08-30T11:34:00.018Z,1017.52
2018-08-30T11:34:59.980Z,1017.54
2018-08-30T11:35:59.939Z,1017.52
2018-08-30T11:36:59.897Z,1017.52
2018-08-30T11:37:59.858Z,1017.55
2018-08-30T11:38:59.818Z,1017.47
2018-08-30T11:39:59.786Z,1017.47
2018-08-30T11:40:59.737Z,1017.44
2018-08-30T11:41:59.700Z,1017.46
2018-08-30T11:42:59.658Z,1017.45
2018-08-30T11:43:59.620Z,1017.39
2018-08-30T11:44:59.580Z,1017.42
2018-08-30T11:45:59.543Z,1017.46
2018-08-30T11:46:59.504Z,1017.52
2018-08-30T11:47:59.464Z,1017.56
2018-08-30T11:48:59.437Z,1017.52
2018-08-30T11:49:59.385Z,1017.57
2018-08-30T11:50:59.345Z,1017.55
2018-08-30T11:51:59.305Z,1017.55
2018-08-30T11:52:59.266Z,1017.48
2018-08-30T11:53:59.226Z,1017.58
2018-08-30T11:54:59.187Z,1017.57
2018-08-30T11:55:59.173Z,1017.58
2018-08-30T11:56:59.112Z,1017.64
2018-08-30T11:57:59.072Z,1017.66
2018-08-30T11:58:59.034Z,1017.66
2018-08-30T11:59:59.000Z,1017.68
2018-08-30T12:00:59.179Z,1017.71
2018-08-30T12:01:58.919Z,1017.68
2018-08-30T12:02:58.881Z,1017.65
2018-08-30T12:03:58.839Z,1017.73
2018-08-30T12:04:58.808Z,1017.68